Time;durP1;ratioP1;P1;durP2;ratioP2;P2;SDS_P1;SDS_P2;PMS_P1;PMS_P2;Temp;Humidity;BMP_temperature;BMP_pressure;BME280_temperature;BME280_humidity;BME280_pressure;Samples;Min_cycle;Max_cycle;Signal;HPM_P1;HPM_P2
2023/05/25 00:02:03;;;;;;;4.17;2.20;;;;;;;9.64;80.94;102475.09;5073360;28;20078;-90
2023/05/25 00:04:29;;;;;;;4.25;2.20;;;;;;;9.56;80.61;102461.16;5072714;28;20028;-90
2023/05/25 00:06:55;;;;;;;2.27;1.77;;;;;;;9.64;79.99;102469.91;5072994;28;20021;-90
2023/05/25 00:09:20;;;;;;;2.20;1.70;;;;;;;9.64;80.42;102464.72;5073431;28;20777;-90
2023/05/25 00:11:45;;;;;;;2.33;1.70;;;;;;;9.62;80.99;102471.59;5073144;28;20423;-89
2023/05/25 00:14:11;;;;;;;3.13;1.83;;;;;;;9.64;79.66;102479.38;5072270;28;20020;-89
2023/05/25 00:16:36;;;;;;;3.10;1.70;;;;;;;9.58;79.82;102465.50;5073796;28;20556;-91
2023/05/25 00:19:04;;;;;;;2.50;1.60;;;;;;;9.63;78.48;102469.84;5073368;28;20029;-90
2023/05/25 00:21:33;;;;;;;2.13;1.63;;;;;;;9.60;80.85;102468.09;5072522;28;20012;-88
2023/05/25 00:23:58;;;;;;;1.52;1.42;;;;;;;9.60;82.34;102472.44;5073365;28;20107;-88
2023/05/25 00:26:23;;;;;;;5.20;2.70;;;;;;;9.54;81.90;102473.22;5073131;28;20488;-91
2023/05/25 00:28:49;;;;;;;4.23;2.33;;;;;;;9.54;80.19;102478.38;5072696;28;20106;-90
2023/05/25 00:31:14;;;;;;;3.47;2.17;;;;;;;9.54;80.10;102465.44;5073102;28;20029;-91
2023/05/25 00:33:39;;;;;;;3.93;2.20;;;;;;;9.49;80.23;102467.97;5073135;28;20033;-90
2023/05/25 00:36:05;;;;;;;3.50;1.90;;;;;;;9.38;80.12;102457.41;5072665;28;20028;-89
2023/05/25 00:38:30;;;;;;;2.20;1.90;;;;;;;9.50;80.48;102481.78;5073113;28;20381;-88
2023/05/25 00:40:56;;;;;;;5.10;2.30;;;;;;;9.45;82.28;102484.28;5073034;28;20017;-88
2023/05/25 00:43:22;;;;;;;4.77;2.30;;;;;;;9.42;82.57;102485.13;5072744;28;20512;-91
2023/05/25 00:45:49;;;;;;;4.40;2.40;;;;;;;9.40;80.25;102486.81;5072685;28;20048;-92
2023/05/25 00:48:14;;;;;;;3.17;1.98;;;;;;;9.40;80.84;102484.22;5072669;28;20031;-91
2023/05/25 00:50:43;;;;;;;2.90;1.80;;;;;;;9.39;80.17;102474.69;5072620;28;20020;-88
2023/05/25 00:53:09;;;;;;;2.03;1.85;;;;;;;9.40;80.98;102476.44;5073189;28;20028;-91
2023/05/25 00:55:39;;;;;;;2.50;1.85;;;;;;;9.39;80.09;102476.44;5072045;28;20039;-90
2023/05/25 00:58:10;;;;;;;5.05;2.17;;;;;;;9.37;81.78;102480.72;5074020;28;20028;-91
2023/05/25 01:00:40;;;;;;;6.60;2.80;;;;;;;9.31;83.75;102484.09;5072999;28;20025;-88
2023/05/25 01:03:12;;;;;;;4.70;2.35;;;;;;;9.33;81.40;102478.91;5073313;28;20051;-90
2023/05/25 01:05:41;;;;;;;3.03;2.00;;;;;;;9.30;80.57;102479.75;5075896;28;20039;-91
2023/05/25 01:08:08;;;;;;;3.10;2.10;;;;;;;9.34;80.14;102481.56;5076405;28;20043;-90
2023/05/25 01:10:36;;;;;;;2.95;1.73;;;;;;;9.30;81.80;102482.34;5076175;28;20055;-90
2023/05/25 01:13:03;;;;;;;2.15;1.90;;;;;;;9.29;80.58;102488.34;5076715;28;20028;-90
2023/05/25 01:15:31;;;;;;;2.13;1.60;;;;;;;9.32;80.65;102490.13;5076228;28;20366;-89
2023/05/25 01:17:58;;;;;;;1.90;1.50;;;;;;;9.27;80.34;102485.75;5075567;28;20029;-91
2023/05/25 01:20:26;;;;;;;2.28;1.55;;;;;;;9.30;79.64;102486.63;5076446;28;20032;-90
2023/05/25 01:23:12;;;;;;;1.67;1.55;;;;;;;9.29;79.72;102496.13;5076337;28;20077;-90
2023/05/25 01:25:40;;;;;;;;;;;;;;;9.24;80.32;102490.88;5075756;28;20388;-91
2023/05/25 01:28:10;;;;;;;2.05;1.85;;;;;;;9.20;80.38;102499.44;5075730;28;20292;-91
2023/05/25 01:30:38;;;;;;;2.80;1.80;;;;;;;9.20;79.62;102498.56;5057169;28;20036;-90
2023/05/25 01:33:05;;;;;;;1.73;1.60;;;;;;;9.15;79.45;102501.09;5075903;28;20484;-90
2023/05/25 01:35:32;;;;;;;1.98;1.77;;;;;;;9.15;79.55;102505.38;5076047;28;20069;-90
2023/05/25 01:37:58;;;;;;;;;;;;;;;9.12;80.16;102506.22;5075842;28;20032;-91
2023/05/25 01:40:23;;;;;;;3.00;1.80;;;;;;;9.07;79.89;102502.66;5076043;28;20015;-90
2023/05/25 01:42:48;;;;;;;1.80;1.60;;;;;;;9.04;79.88;102498.28;5075990;28;20020;-90
2023/05/25 01:45:15;;;;;;;2.53;1.70;;;;;;;9.06;79.65;102509.56;5075329;28;20507;-91
2023/05/25 01:48:08;;;;;;;1.95;1.60;;;;;;;9.04;79.52;102507.78;5055874;28;20451;-91
2023/05/25 01:50:41;;;;;;;2.08;1.80;;;;;;;9.01;79.77;102511.19;5055716;28;20040;-90
2023/05/25 01:53:17;;;;;;;1.92;1.73;;;;;;;8.96;79.36;102510.25;5054763;28;20024;-91
2023/05/25 01:55:57;;;;;;;2.30;1.83;;;;;;;8.98;79.22;102511.16;5055877;28;20367;-91
2023/05/25 01:58:24;;;;;;;3.50;2.20;;;;;;;8.94;79.47;102511.94;5055936;28;20768;-91
2023/05/25 02:00:50;;;;;;;2.30;1.92;;;;;;;8.91;79.40;102512.75;5055058;28;20032;-91
2023/05/25 02:03:16;;;;;;;2.80;1.88;;;;;;;8.89;79.60;102511.00;5055387;28;20021;-91
2023/05/25 02:05:42;;;;;;;1.93;1.73;;;;;;;8.84;79.77;102516.06;5055056;28;20373;-90
2023/05/25 02:08:07;;;;;;;3.67;1.80;;;;;;;8.77;79.65;102507.31;5055577;28;20025;-90
2023/05/25 02:10:33;;;;;;;2.83;1.93;;;;;;;8.78;79.86;102506.44;5054912;28;20039;-90
2023/05/25 02:12:58;;;;;;;2.50;1.90;;;;;;;8.76;79.50;102512.44;5054942;28;20044;-90
2023/05/25 02:15:23;;;;;;;2.77;2.00;;;;;;;8.76;79.99;102515.03;5054827;28;20432;-91
2023/05/25 02:17:49;;;;;;;2.67;2.00;;;;;;;8.73;79.96;102518.44;5054836;28;20036;-90
2023/05/25 02:20:14;;;;;;;2.20;1.67;;;;;;;8.69;80.07;102508.00;5054756;28;20035;-91
2023/05/25 02:22:40;;;;;;;2.63;1.90;;;;;;;8.66;79.74;102511.41;5055196;28;20466;-91
2023/05/25 02:25:07;;;;;;;2.17;1.77;;;;;;;8.60;79.80;102508.69;5055172;28;20086;-91
2023/05/25 02:27:33;;;;;;;3.20;2.00;;;;;;;8.62;79.74;102515.63;5054538;28;20029;-91
2023/05/25 02:29:58;;;;;;;3.13;2.00;;;;;;;8.58;79.67;102508.69;5051482;28;20027;-90
2023/05/25 02:32:23;;;;;;;1.97;1.80;;;;;;;8.55;80.15;102513.78;5054644;28;20035;-91
2023/05/25 02:34:48;;;;;;;2.37;2.10;;;;;;;8.53;80.11;102512.88;5054058;28;20028;-90
2023/05/25 02:37:14;;;;;;;2.00;1.80;;;;;;;8.50;80.04;102511.09;5054910;28;20211;-91
2023/05/25 02:39:39;;;;;;;2.10;1.90;;;;;;;8.47;80.61;102502.38;5054420;28;20021;-89
2023/05/25 02:42:07;;;;;;;2.67;2.00;;;;;;;8.45;80.22;102501.47;5054485;28;20029;-91
2023/05/25 02:44:33;;;;;;;3.92;2.20;;;;;;;8.44;80.38;102510.97;5054959;28;20025;-90
2023/05/25 02:46:58;;;;;;;2.67;2.20;;;;;;;8.38;80.62;102502.19;5068416;28;20037;-90
2023/05/25 02:49:23;;;;;;;2.30;2.10;;;;;;;8.39;80.75;102509.97;5074347;28;20027;-90
2023/05/25 02:51:48;;;;;;;2.63;2.10;;;;;;;8.37;80.36;102503.03;5074643;28;20024;-91
2023/05/25 02:54:17;;;;;;;3.83;2.43;;;;;;;8.35;80.34;102510.75;5074772;28;20119;-90
2023/05/25 02:56:42;;;;;;;3.10;2.40;;;;;;;8.36;80.54;102509.91;5073675;28;20020;-90
2023/05/25 02:59:08;;;;;;;4.37;2.50;;;;;;;8.36;80.49;102507.31;5074243;28;20032;-90
2023/05/25 03:01:34;;;;;;;4.57;2.60;;;;;;;8.32;80.30;102502.94;5074182;28;20021;-90
2023/05/25 03:04:02;;;;;;;3.53;2.40;;;;;;;8.27;80.96;102496.78;5073990;28;20027;-90
2023/05/25 03:06:27;;;;;;;3.38;2.40;;;;;;;8.27;80.71;102502.84;5074282;28;20028;-90
2023/05/25 03:08:53;;;;;;;3.57;2.30;;;;;;;8.24;81.27;102510.53;5074343;28;20021;-89
2023/05/25 03:11:18;;;;;;;2.60;2.40;;;;;;;8.26;81.28;102523.50;5073926;28;20023;-90
2023/05/25 03:13:43;;;;;;;2.80;2.33;;;;;;;8.23;80.75;102513.97;5073828;28;20025;-90
2023/05/25 03:16:08;;;;;;;4.00;2.57;;;;;;;8.23;80.88;102519.13;5073758;28;20024;-90
2023/05/25 03:18:34;;;;;;;3.70;2.60;;;;;;;8.19;80.88;102527.66;5074025;28;20029;-90
2023/05/25 03:21:00;;;;;;;5.25;2.50;;;;;;;8.13;81.07;102528.41;5073751;28;20048;-90
2023/05/25 03:23:25;;;;;;;4.23;2.57;;;;;;;8.10;80.72;102527.47;5073220;28;20063;-89
2023/05/25 03:25:50;;;;;;;5.70;2.70;;;;;;;8.11;81.00;102542.13;5073752;28;20099;-90
2023/05/25 03:28:16;;;;;;;5.25;2.63;;;;;;;8.08;81.19;102537.78;5073994;28;20161;-90
2023/05/25 03:30:41;;;;;;;4.83;2.50;;;;;;;7.99;81.11;102530.69;5073166;28;20017;-89
2023/05/25 03:33:06;;;;;;;3.87;2.60;;;;;;;8.07;81.26;102548.06;5073803;28;20131;-90
2023/05/25 03:35:31;;;;;;;3.67;2.60;;;;;;;8.07;81.20;102554.13;5073424;28;20024;-88
2023/05/25 03:37:57;;;;;;;3.67;2.47;;;;;;;8.03;81.39;102552.31;5072595;28;20129;-89
2023/05/25 03:40:22;;;;;;;3.55;2.63;;;;;;;8.04;81.27;102554.94;5073776;28;20036;-89
2023/05/25 03:42:47;;;;;;;7.77;3.13;;;;;;;8.02;81.30;102558.31;5073243;28;20116;-90
2023/05/25 03:45:12;;;;;;;4.73;2.80;;;;;;;8.02;81.39;102560.91;5073120;28;20028;-90
2023/05/25 03:47:38;;;;;;;4.40;2.60;;;;;;;8.04;81.55;102567.00;5073411;28;20041;-90
2023/05/25 03:50:05;;;;;;;3.83;2.60;;;;;;;8.04;81.32;102565.28;5073817;28;20140;-90
2023/05/25 03:52:31;;;;;;;4.50;2.80;;;;;;;8.00;81.62;102563.47;5072548;28;20020;-88
2023/05/25 03:54:56;;;;;;;3.93;2.53;;;;;;;8.00;82.07;102571.22;5073292;28;20369;-87
2023/05/25 03:57:21;;;;;;;3.80;2.78;;;;;;;7.99;82.22;102566.88;5073434;28;20028;-88
2023/05/25 03:59:47;;;;;;;3.50;2.27;;;;;;;7.98;82.00;102569.44;5072198;28;20115;-88
2023/05/25 04:02:12;;;;;;;4.17;2.40;;;;;;;8.00;81.84;102572.91;5073711;28;20028;-89
2023/05/25 04:04:40;;;;;;;4.53;2.67;;;;;;;8.00;83.62;102570.31;5073048;28;20023;-88
2023/05/25 04:07:06;;;;;;;3.63;2.65;;;;;;;8.00;84.64;102575.50;5072449;28;20040;-89
2023/05/25 04:09:31;;;;;;;4.77;2.87;;;;;;;8.00;83.46;102578.97;5073002;28;20033;-88
2023/05/25 04:11:57;;;;;;;4.07;2.67;;;;;;;8.00;83.22;102570.31;5073219;28;20036;-89
2023/05/25 04:14:22;;;;;;;3.37;2.60;;;;;;;8.02;84.02;102568.66;5072762;28;20499;-90
2023/05/25 04:16:48;;;;;;;5.00;2.60;;;;;;;8.05;83.40;102568.75;5072850;28;20035;-88
2023/05/25 04:19:13;;;;;;;3.83;2.60;;;;;;;8.04;83.05;102562.72;5073023;28;20025;-89
2023/05/25 04:21:38;;;;;;;5.07;2.47;;;;;;;8.10;83.14;102566.25;5072420;28;20095;-88
2023/05/25 04:24:04;;;;;;;5.27;3.00;;;;;;;8.08;85.40;102563.66;5072475;28;20457;-87
2023/05/25 04:26:30;;;;;;;6.57;3.10;;;;;;;8.04;85.16;102570.47;5071437;28;20100;-88
2023/05/25 04:28:56;;;;;;;6.35;2.85;;;;;;;8.09;85.73;102572.25;5072897;28;20032;-88
2023/05/25 04:31:23;;;;;;;6.30;2.90;;;;;;;8.12;86.18;102580.09;5072707;28;20028;-87
2023/05/25 04:33:48;;;;;;;;;;;;;;;8.14;85.57;102584.47;5072477;28;20385;-88
2023/05/25 04:36:14;;;;;;;4.60;2.60;;;;;;;8.13;84.60;102581.84;5072335;28;19917;-87
2023/05/25 04:38:40;;;;;;;2.60;2.40;;;;;;;8.19;84.78;102581.97;5074092;28;20025;-88
2023/05/25 04:41:05;;;;;;;4.60;2.40;;;;;;;8.19;85.78;102581.97;5075155;28;20044;-88
2023/05/25 04:43:31;;;;;;;9.67;3.73;;;;;;;8.23;90.26;102593.25;5075593;28;20027;-87
2023/05/25 04:45:56;;;;;;;7.67;3.63;;;;;;;8.22;90.39;102587.22;5070858;28;20037;-87
2023/05/25 04:48:23;;;;;;;7.37;3.70;;;;;;;8.24;88.93;102584.66;5054572;28;20063;-87
2023/05/25 04:50:49;;;;;;;6.20;3.10;;;;;;;8.28;87.50;102587.34;5055869;28;20104;-87
2023/05/25 04:53:14;;;;;;;5.50;2.90;;;;;;;8.35;86.50;102583.19;5056098;28;20113;-87
2023/05/25 04:55:39;;;;;;;5.17;3.20;;;;;;;8.40;90.41;102580.69;5055405;28;20037;-89
2023/05/25 04:58:05;;;;;;;6.72;3.20;;;;;;;8.44;89.60;102590.28;5056667;28;20036;-88
2023/05/25 05:00:33;;;;;;;5.20;2.90;;;;;;;8.48;87.27;102590.41;5055798;28;20032;-88
2023/05/25 05:02:59;;;;;;;4.32;2.55;;;;;;;8.54;87.35;102594.84;5055206;28;20025;-88
2023/05/25 05:05:24;;;;;;;3.07;2.37;;;;;;;8.60;87.16;102607.03;5055976;28;20024;-87
2023/05/25 05:07:50;;;;;;;3.23;2.20;;;;;;;8.67;86.30;102600.28;5055998;28;20441;-88
2023/05/25 05:10:16;;;;;;;2.57;2.07;;;;;;;8.69;86.51;102589.13;5055108;28;20116;-87
2023/05/25 05:12:41;;;;;;;3.80;2.50;;;;;;;8.73;87.69;102590.94;5055491;28;20104;-88
2023/05/25 05:15:07;;;;;;;2.43;2.10;;;;;;;8.79;87.59;102591.03;5056213;28;20029;-88
2023/05/25 05:17:32;;;;;;;6.47;2.70;;;;;;;8.88;88.59;102600.72;5055003;28;20163;-87
2023/05/25 05:19:58;;;;;;;4.13;2.67;;;;;;;8.93;88.25;102593.94;5055626;28;20017;-90
2023/05/25 05:22:23;;;;;;;6.30;2.73;;;;;;;9.02;90.89;102598.41;5056361;28;20521;-88
2023/05/25 05:24:48;;;;;;;8.97;3.53;;;;;;;9.07;89.99;102596.78;5055443;28;20496;-87
2023/05/25 05:27:14;;;;;;;6.33;3.20;;;;;;;9.14;89.50;102607.25;5055784;28;20029;-89
2023/05/25 05:29:40;;;;;;;9.57;3.70;;;;;;;9.20;91.18;102613.41;5054550;28;20047;-89
2023/05/25 05:32:06;;;;;;;16.57;5.40;;;;;;;9.25;92.07;102616.97;5055823;28;20469;-89
2023/05/25 05:34:32;;;;;;;13.03;5.30;;;;;;;9.30;91.63;102619.66;5054691;28;20017;-85
2023/05/25 05:37:00;;;;;;;15.50;6.23;;;;;;;9.29;91.10;102610.13;5053988;28;20025;-86
2023/05/25 05:39:26;;;;;;;11.60;5.00;;;;;;;9.38;91.13;102617.22;5054956;28;20095;-86
2023/05/25 05:41:52;;;;;;;15.07;6.05;;;;;;;9.38;91.19;102622.41;5055296;28;20056;-89
2023/05/25 05:44:20;;;;;;;13.50;5.90;;;;;;;9.41;91.41;102623.31;5054717;28;20025;-88
2023/05/25 05:46:45;;;;;;;12.75;5.00;;;;;;;9.52;90.90;102626.09;5067167;28;20391;-88
2023/05/25 05:49:10;;;;;;;14.47;5.97;;;;;;;9.60;90.98;102628.81;5074835;28;20107;-87
2023/05/25 05:51:35;;;;;;;12.33;5.13;;;;;;;9.66;90.85;102635.81;5073572;28;20032;-88
2023/05/25 05:54:02;;;;;;;13.52;5.03;;;;;;;9.73;90.27;102637.69;5075055;28;20461;-88
2023/05/25 05:56:28;;;;;;;16.20;5.80;;;;;;;9.77;90.54;102641.22;5074823;28;20048;-87
2023/05/25 05:58:53;;;;;;;13.37;5.67;;;;;;;9.83;89.86;102643.91;5073568;28;20020;-86
2023/05/25 06:01:18;;;;;;;13.07;5.47;;;;;;;9.87;90.05;102643.97;5074807;28;20457;-87
2023/05/25 06:03:47;;;;;;;10.97;4.57;;;;;;;9.96;89.54;102638.06;5074657;28;20048;-88
2023/05/25 06:06:12;;;;;;;8.95;4.60;;;;;;;10.08;90.03;102654.69;5065883;28;20542;-87
2023/05/25 06:08:39;;;;;;;10.77;4.73;;;;;;;10.14;89.68;102649.56;5073991;28;20032;-87
2023/05/25 06:11:05;;;;;;;17.00;5.65;;;;;;;10.17;89.31;102660.00;5074549;28;20434;-85
2023/05/25 06:13:30;;;;;;;13.60;5.77;;;;;;;10.34;89.39;102652.47;5073347;28;20107;-86
2023/05/25 06:15:55;;;;;;;12.50;5.63;;;;;;;10.66;87.63;102650.38;5074393;28;20358;-87
2023/05/25 06:18:20;;;;;;;16.80;6.13;;;;;;;10.89;87.11;102654.09;5074233;28;20031;-86
2023/05/25 06:20:46;;;;;;;11.53;4.20;;;;;;;11.09;87.83;102657.81;5073655;28;20028;-87
2023/05/25 06:23:12;;;;;;;9.07;4.30;;;;;;;11.52;86.73;102657.41;5074088;28;20469;-87
2023/05/25 06:25:38;;;;;;;12.32;5.05;;;;;;;12.00;81.98;102659.59;5074371;28;20099;-87
2023/05/25 06:28:04;;;;;;;13.90;4.87;;;;;;;12.04;81.93;102667.44;5073492;28;20519;-87
2023/05/25 06:30:29;;;;;;;13.17;5.00;;;;;;;12.14;80.11;102662.31;5073910;28;20024;-86
2023/05/25 06:32:55;;;;;;;11.97;5.07;;;;;;;12.56;79.74;102665.19;5073074;28;20044;-86
2023/05/25 06:35:20;;;;;;;12.15;4.95;;;;;;;13.20;75.71;102656.78;5073963;28;20032;-85
2023/05/25 06:37:47;;;;;;;13.77;4.90;;;;;;;13.51;74.46;102661.22;5073866;28;20094;-86
2023/05/25 06:40:13;;;;;;;12.18;4.72;;;;;;;13.93;72.57;102680.38;5073434;28;20027;-87
2023/05/25 06:42:39;;;;;;;11.40;4.30;;;;;;;13.66;72.00;102683.84;5073692;28;20111;-86
2023/05/25 06:45:05;;;;;;;9.87;4.57;;;;;;;13.34;74.14;102685.47;5073981;28;20083;-87
2023/05/25 06:47:30;;;;;;;9.17;3.83;;;;;;;13.17;75.99;102687.19;5046595;28;20815;-86
2023/05/25 06:49:56;;;;;;;10.53;4.80;;;;;;;12.90;74.60;102692.25;5053717;28;20337;-86
2023/05/25 06:52:21;;;;;;;14.27;5.57;;;;;;;12.32;76.91;102695.41;5053462;28;20029;-86
2023/05/25 06:54:46;;;;;;;14.63;5.27;;;;;;;12.26;77.56;102692.78;5052023;28;20033;-86
2023/05/25 06:57:12;;;;;;;15.30;5.60;;;;;;;12.24;77.42;102695.34;5053579;28;20465;-86
2023/05/25 06:59:37;;;;;;;12.43;5.10;;;;;;;12.38;77.75;102681.56;5053961;28;20037;-86
2023/05/25 07:02:05;;;;;;;13.43;4.93;;;;;;;12.57;77.04;102687.75;5053424;28;20109;-86
2023/05/25 07:04:31;;;;;;;15.27;5.57;;;;;;;12.71;76.76;102693.94;5052972;28;20383;-87
2023/05/25 07:06:57;;;;;;;13.18;5.20;;;;;;;12.81;77.85;102692.22;5053052;28;20485;-92
2023/05/25 07:09:22;;;;;;;12.77;5.07;;;;;;;12.95;76.42;102694.88;5051479;28;20075;-82
2023/05/25 07:11:47;;;;;;;13.30;5.50;;;;;;;12.91;74.89;102690.53;5053090;28;20025;-88
2023/05/25 07:14:13;;;;;;;12.03;5.30;;;;;;;12.61;75.71;102705.16;5052874;28;20469;-85
2023/05/25 07:16:38;;;;;;;17.33;5.83;;;;;;;12.28;75.65;102701.44;5051971;28;20021;-85
2023/05/25 07:19:03;;;;;;;12.50;5.30;;;;;;;12.27;76.89;102699.72;5053449;28;20045;-83
2023/05/25 07:21:34;;;;;;;14.23;5.80;;;;;;;12.06;76.56;102698.69;5053345;28;20359;-82
2023/05/25 07:24:00;;;;;;;14.25;5.68;;;;;;;12.04;77.34;102703.88;5052465;28;20028;-81
2023/05/25 07:26:26;;;;;;;13.40;5.72;;;;;;;11.96;77.68;102702.03;5052758;28;20039;-84
2023/05/25 07:28:52;;;;;;;17.40;5.35;;;;;;;12.11;77.32;102696.09;5052645;28;20028;-83
2023/05/25 07:31:17;;;;;;;11.17;4.57;;;;;;;12.34;77.63;102698.91;5052551;28;20361;-83
2023/05/25 07:33:42;;;;;;;11.40;4.90;;;;;;;12.57;76.93;102709.47;5052804;28;20031;-83
2023/05/25 07:36:09;;;;;;;17.50;6.23;;;;;;;12.44;75.25;102713.72;5052924;28;20025;-82
2023/05/25 07:38:34;;;;;;;15.13;5.63;;;;;;;12.46;74.89;102706.81;5052052;28;20024;-83
2023/05/25 07:41:00;;;;;;;14.07;4.90;;;;;;;12.62;74.82;102697.34;5052662;28;20017;-82
2023/05/25 07:43:25;;;;;;;10.33;4.77;;;;;;;12.78;74.72;102707.84;5051989;28;20021;-83
2023/05/25 07:45:51;;;;;;;13.63;5.43;;;;;;;12.99;74.17;102712.28;5056947;28;20063;-83
2023/05/25 07:48:16;;;;;;;9.43;4.10;;;;;;;13.20;75.39;102698.50;5073132;28;20044;-83
2023/05/25 07:50:41;;;;;;;15.93;5.40;;;;;;;13.24;71.28;102708.03;5071738;28;20025;-83
2023/05/25 07:53:06;;;;;;;12.27;4.30;;;;;;;13.50;72.96;102701.22;5072705;28;20116;-83
2023/05/25 07:55:32;;;;;;;15.97;5.17;;;;;;;13.50;70.22;102706.44;5071900;28;20031;-83
2023/05/25 07:57:57;;;;;;;11.67;4.63;;;;;;;13.59;70.84;102709.06;5071873;28;20039;-83
2023/05/25 08:00:22;;;;;;;17.03;5.40;;;;;;;13.61;69.62;102703.81;5072571;28;20484;-83
2023/05/25 08:02:48;;;;;;;12.33;4.37;;;;;;;13.72;70.54;102692.56;5072015;28;20104;-83
2023/05/25 08:05:13;;;;;;;12.17;4.17;;;;;;;14.04;69.53;102714.31;5072048;28;20107;-83
2023/05/25 08:07:39;;;;;;;16.10;4.77;;;;;;;14.23;67.89;102719.53;5072356;28;20033;-82
2023/05/25 08:10:05;;;;;;;13.13;4.60;;;;;;;14.31;67.41;102715.16;5072744;28;20460;-83
2023/05/25 08:12:31;;;;;;;13.10;4.60;;;;;;;14.44;67.07;102711.69;5071217;28;20058;-82
2023/05/25 08:14:56;;;;;;;11.57;4.60;;;;;;;14.56;66.96;102709.91;5076123;28;20036;-80
2023/05/25 08:17:22;;;;;;;11.83;4.13;;;;;;;14.84;65.30;102726.44;5076220;28;20480;-82
2023/05/25 08:19:47;;;;;;;12.60;4.30;;;;;;;15.07;65.29;102717.63;5075225;28;20115;-83
2023/05/25 08:22:12;;;;;;;9.17;3.63;;;;;;;15.35;66.23;102718.38;5076694;28;20027;-84
2023/05/25 08:24:38;;;;;;;10.43;3.97;;;;;;;15.59;63.38;102719.13;5076080;28;20028;-84
2023/05/25 08:27:03;;;;;;;10.63;3.83;;;;;;;15.65;64.13;102726.91;5075284;28;20470;-84
2023/05/25 08:29:29;;;;;;;12.47;4.80;;;;;;;15.51;63.31;102732.22;5076022;28;20039;-84
2023/05/25 08:31:55;;;;;;;12.18;4.20;;;;;;;15.34;62.13;102732.31;5076245;28;20024;-84
2023/05/25 08:34:20;;;;;;;11.20;4.30;;;;;;;15.15;63.06;102728.94;5074861;28;20020;-83
2023/05/25 08:36:45;;;;;;;10.93;4.23;;;;;;;15.05;63.54;102732.47;5076066;28;20031;-83
2023/05/25 08:39:14;;;;;;;12.13;4.50;;;;;;;14.64;64.11;102739.50;5076261;28;20450;-81
2023/05/25 08:41:43;;;;;;;13.77;4.63;;;;;;;14.34;64.06;102736.94;5075072;28;20042;-82
2023/05/25 08:44:09;;;;;;;13.23;4.60;;;;;;;14.30;65.52;102735.19;5075787;28;20028;-82
2023/05/25 08:46:35;;;;;;;9.77;3.80;;;;;;;14.34;66.62;102726.47;5063595;28;20045;-81
2023/05/25 08:49:21;;;;;;;13.88;4.20;;;;;;;14.29;64.03;102733.47;5055928;28;20079;-81
2023/05/25 08:51:51;;;;;;;12.48;4.00;;;;;;;14.37;66.05;102725.59;5055847;28;20440;-82
2023/05/25 08:54:19;;;;;;;12.18;4.00;;;;;;;14.34;64.55;102730.84;5054885;28;20029;-82
2023/05/25 08:56:50;;;;;;;11.27;4.28;;;;;;;14.35;64.36;102729.97;5055145;28;20507;-81
2023/05/25 08:59:44;;;;;;;11.52;4.10;;;;;;;14.34;64.23;102736.06;5056082;28;20031;-82
2023/05/25 09:02:20;;;;;;;11.63;3.97;;;;;;;14.47;65.54;102737.78;5055129;28;20068;-81
2023/05/25 09:04:46;;;;;;;;;;;;;;;14.64;64.50;102737.75;5055775;28;20389;-82
2023/05/25 09:07:12;;;;;;;13.07;3.50;;;;;;;14.91;62.82;102741.22;5055551;28;19908;-82
2023/05/25 09:09:38;;;;;;;11.23;4.10;;;;;;;14.95;62.02;102737.72;5054573;28;20497;-81
2023/05/25 09:12:04;;;;;;;;;;;;;;;14.89;61.94;102747.31;5056130;28;20283;-82
2023/05/25 09:14:30;;;;;;;12.15;4.18;;;;;;;14.70;63.18;102749.09;5055149;28;19913;-82
2023/05/25 09:16:57;;;;;;;11.40;3.77;;;;;;;14.67;63.72;102737.78;5055179;28;20075;-82
2023/05/25 09:19:22;;;;;;;8.10;3.60;;;;;;;14.68;64.28;102746.50;5055384;28;20101;-82
2023/05/25 09:21:47;;;;;;;10.40;3.60;;;;;;;14.72;63.50;102745.59;5053743;28;20025;-82
2023/05/25 09:24:14;;;;;;;7.27;3.20;;;;;;;14.79;62.09;102746.47;5054937;28;20025;-82
2023/05/25 09:26:39;;;;;;;15.43;3.85;;;;;;;14.70;62.26;102743.88;5054858;28;20025;-80
2023/05/25 09:29:04;;;;;;;10.73;3.33;;;;;;;14.80;64.23;102741.25;5054420;28;20041;-81
2023/05/25 09:31:30;;;;;;;11.17;3.40;;;;;;;14.95;64.18;102742.06;5055128;28;20028;-81
2023/05/25 09:33:58;;;;;;;8.27;3.00;;;;;;;15.20;63.58;102755.91;5055344;28;20033;-82
2023/05/25 09:36:25;;;;;;;9.55;3.35;;;;;;;15.28;61.37;102754.16;5054183;28;20025;-81
2023/05/25 09:38:56;;;;;;;12.40;3.60;;;;;;;14.91;61.10;102756.03;5054564;28;20024;-81
2023/05/25 09:41:22;;;;;;;12.02;3.35;;;;;;;14.86;62.64;102765.63;5055043;28;20021;-81
2023/05/25 09:43:47;;;;;;;6.70;3.00;;;;;;;14.89;62.59;102755.16;5053849;28;20036;-81
2023/05/25 09:46:12;;;;;;;8.53;3.30;;;;;;;14.95;62.20;102756.03;5062303;28;20040;-82
2023/05/25 09:48:38;;;;;;;8.07;3.13;;;;;;;15.01;61.96;102747.28;5074460;28;20021;-82
2023/05/25 09:51:05;;;;;;;6.40;2.65;;;;;;;15.11;62.61;102758.56;5073531;28;20473;-82
2023/05/25 09:53:31;;;;;;;6.65;2.47;;;;;;;15.17;61.48;102757.66;5074663;28;20028;-81
2023/05/25 09:55:56;;;;;;;11.20;3.40;;;;;;;15.07;61.56;102751.63;5074973;28;20027;-82
2023/05/25 09:58:23;;;;;;;9.57;3.60;;;;;;;15.12;61.98;102760.31;5073881;28;20480;-82
2023/05/25 10:00:53;;;;;;;11.50;3.60;;;;;;;15.04;63.11;102754.25;5074384;28;20025;-82
2023/05/25 10:03:20;;;;;;;10.13;3.55;;;;;;;15.16;62.09;102764.66;5074547;28;20464;-81
2023/05/25 10:05:46;;;;;;;7.72;3.20;;;;;;;15.27;62.16;102759.38;5073388;28;20068;-82
2023/05/25 10:08:12;;;;;;;8.63;2.90;;;;;;;15.39;63.37;102758.47;5074509;28;20388;-82
2023/05/25 10:10:41;;;;;;;8.88;3.35;;;;;;;15.39;60.90;102761.06;5074361;28;20071;-82
2023/05/25 10:13:08;;;;;;;8.80;3.25;;;;;;;15.40;62.13;102757.59;5073548;28;20035;-81
2023/05/25 10:15:36;;;;;;;12.75;3.80;;;;;;;15.34;61.30;102765.44;5074168;28;20082;-83
2023/05/25 10:18:02;;;;;;;8.63;3.40;;;;;;;15.38;61.27;102764.56;5073314;28;20475;-84
2023/05/25 10:20:30;;;;;;;8.70;3.65;;;;;;;15.19;61.46;102761.16;5074429;28;20028;-83
2023/05/25 10:23:07;;;;;;;7.97;3.13;;;;;;;15.33;62.12;102761.09;5073834;28;20104;-83
2023/05/25 10:25:42;;;;;;;6.28;3.13;;;;;;;15.47;61.58;102761.03;5072989;28;20040;-83
2023/05/25 10:28:20;;;;;;;7.97;3.40;;;;;;;15.55;60.50;102760.09;5073980;28;20107;-83
2023/05/25 10:30:47;;;;;;;7.88;3.00;;;;;;;15.67;60.10;102767.03;5073836;28;20029;-83
2023/05/25 10:33:12;;;;;;;10.48;3.30;;;;;;;15.63;58.07;102761.81;5073215;28;20024;-83
2023/05/25 10:35:38;;;;;;;8.90;3.40;;;;;;;15.49;58.69;102761.88;5073003;28;20025;-84
2023/05/25 10:38:07;;;;;;;10.50;3.90;;;;;;;15.38;58.61;102767.19;5073037;28;20016;-82
2023/05/25 10:40:33;;;;;;;11.70;3.83;;;;;;;15.51;58.74;102755.78;5072747;28;20036;-81
2023/05/25 10:43:02;;;;;;;10.95;3.55;;;;;;;15.69;57.61;102769.63;5073693;28;20081;-82
2023/05/25 10:45:28;;;;;;;14.02;3.95;;;;;;;15.71;57.17;102767.88;5073654;28;20077;-81
2023/05/25 10:47:53;;;;;;;11.67;3.63;;;;;;;15.77;59.14;102759.97;5072401;28;20029;-77
2023/05/25 10:50:20;;;;;;;9.80;3.80;;;;;;;15.62;56.84;102762.69;5073221;28;20298;-82
2023/05/25 10:52:57;;;;;;;11.20;3.80;;;;;;;15.58;58.15;102761.84;5073276;28;20017;-83
2023/05/25 10:55:26;;;;;;;12.02;3.67;;;;;;;15.50;57.37;102759.28;5063060;28;20029;-83
2023/05/25 10:58:06;;;;;;;11.73;3.70;;;;;;;15.66;57.91;102759.16;5065359;28;20028;-84
2023/05/25 11:00:32;;;;;;;9.68;3.47;;;;;;;16.04;57.43;102764.19;5072308;28;20028;-85
2023/05/25 11:02:57;;;;;;;11.70;3.90;;;;;;;16.19;55.00;102763.22;5067856;28;20043;-84
2023/05/25 11:05:30;;;;;;;11.00;3.77;;;;;;;16.33;54.96;102759.56;5073041;28;20029;-85
2023/05/25 11:08:00;;;;;;;8.95;3.40;;;;;;;16.54;55.48;102755.91;5072589;28;20427;-84
2023/05/25 11:10:47;;;;;;;7.53;3.13;;;;;;;16.60;57.09;102754.97;5073001;28;20021;-83
2023/05/25 11:13:31;;;;;;;7.32;3.20;;;;;;;16.65;54.98;102763.66;5072695;28;20032;-83
2023/05/25 11:16:23;;;;;;;9.45;3.60;;;;;;;16.53;55.38;102759.41;5072328;28;20078;-83
2023/05/25 11:18:57;;;;;;;11.73;3.60;;;;;;;16.52;56.60;102752.41;5072654;28;20044;-83
2023/05/25 11:21:25;;;;;;;9.32;3.72;;;;;;;16.47;54.95;102756.84;5071491;28;20103;-82
2023/05/25 11:24:02;;;;;;;11.00;3.30;;;;;;;16.51;55.87;102755.91;5072826;28;20025;-83
2023/05/25 11:26:29;;;;;;;7.82;3.25;;;;;;;16.72;55.29;102748.75;5072976;28;20032;-83